createdAt,value
2018-12-05T00:00:51.375Z,101729.88
2018-12-05T00:17:33.611Z,101723.73
2018-12-05T00:23:46.876Z,101712.34
2018-12-05T00:26:17.357Z,101718.09
2018-12-05T00:28:53.432Z,101706.45
2018-12-05T00:31:23.150Z,101715.70
2018-12-05T00:33:54.348Z,101719.55
2018-12-05T00:36:22.553Z,101724.36
2018-12-05T00:38:50.656Z,101718.60
2018-12-05T00:41:18.802Z,101721.24
2018-12-05T00:43:46.889Z,101723.89
2018-12-05T00:46:15.060Z,101726.76
2018-12-05T00:48:43.145Z,101726.78
2018-12-05T00:51:11.326Z,101725.20
2018-12-05T00:53:39.615Z,101724.48
2018-12-05T00:56:07.864Z,101710.41
2018-12-05T00:58:36.069Z,101707.16
2018-12-05T01:01:04.344Z,101706.69
2018-12-05T01:03:32.538Z,101708.14
2018-12-05T01:06:00.812Z,101706.34
2018-12-05T01:08:29.066Z,101712.34
2018-12-05T01:10:57.234Z,101713.68
2018-12-05T01:13:25.382Z,101706.34
2018-12-05T01:15:53.457Z,101696.83
2018-12-05T01:18:21.638Z,101702.62
2018-12-05T01:20:49.729Z,101690.21
2018-12-05T01:23:17.823Z,101702.00
2018-12-05T01:25:45.972Z,101700.20
2018-12-05T01:28:14.063Z,101707.55
2018-12-05T01:30:42.125Z,101707.91
2018-12-05T01:33:10.218Z,101707.19
2018-12-05T01:35:38.373Z,101711.86
2018-12-05T01:38:06.451Z,101713.44
2018-12-05T01:40:34.610Z,101719.89
2018-12-05T01:43:02.694Z,101727.40
2018-12-05T01:45:30.803Z,101722.97
2018-12-05T01:47:58.902Z,101729.88
2018-12-05T01:50:27.141Z,101725.09
2018-12-05T01:52:55.250Z,101724.02
2018-12-05T01:55:23.337Z,101723.41
2018-12-05T01:57:51.523Z,101715.95
2018-12-05T02:00:19.802Z,101713.19
2018-12-05T02:05:22.537Z,101711.61
2018-12-05T02:07:51.289Z,101712.56
2018-12-05T02:10:19.451Z,101700.44
2018-12-05T02:12:47.613Z,101703.93
2018-12-05T02:15:15.827Z,101701.28
2018-12-05T02:17:44.044Z,101704.17
2018-12-05T02:20:12.339Z,101702.01
2018-12-05T02:22:40.513Z,101703.33
2018-12-05T02:25:08.794Z,101697.19
2018-12-05T02:27:36.964Z,101692.38
2018-12-05T02:30:05.818Z,101694.64
2018-12-05T02:32:34.090Z,101700.53
2018-12-05T02:35:02.302Z,101694.08
2018-12-05T02:37:30.482Z,101695.74
2018-12-05T02:39:58.638Z,101689.36
2018-12-05T02:42:26.753Z,101677.84
2018-12-05T02:44:54.850Z,101670.50
2018-12-05T02:47:22.991Z,101668.45
2018-12-05T02:52:23.845Z,101661.59
2018-12-05T02:54:51.932Z,101668.01
2018-12-05T02:57:20.095Z,101671.30
2018-12-05T02:59:56.886Z,101666.33
2018-12-05T03:02:25.030Z,101672.06
2018-12-05T03:04:53.498Z,101673.97
2018-12-05T03:07:21.663Z,101664.14
2018-12-05T03:09:49.870Z,101668.12
2018-12-05T03:12:17.947Z,101672.65
2018-12-05T03:14:46.114Z,101671.33
2018-12-05T03:17:14.175Z,101679.06
2018-12-05T03:19:42.310Z,101683.81
2018-12-05T03:22:10.467Z,101683.80
2018-12-05T03:24:38.630Z,101681.86
2018-12-05T03:27:06.739Z,101683.01
2018-12-05T03:29:34.899Z,101683.95
2018-12-05T03:32:02.981Z,101674.60
2018-12-05T03:34:31.147Z,101678.06
2018-12-05T03:36:59.803Z,101688.87
2018-12-05T03:39:27.907Z,101688.80
2018-12-05T03:41:55.989Z,101683.92
2018-12-05T03:44:24.228Z,101679.31
2018-12-05T03:46:52.378Z,101685.03
2018-12-05T03:49:20.490Z,101680.22
2018-12-05T03:51:48.566Z,101669.91
2018-12-05T03:54:16.955Z,101667.87
2018-12-05T03:56:45.033Z,101674.35
2018-12-05T03:59:13.208Z,101668.73
2018-12-05T04:01:44.292Z,101669.58
2018-12-05T04:04:12.401Z,101669.06
2018-12-05T04:06:40.574Z,101668.33
2018-12-05T04:09:08.833Z,101673.95
2018-12-05T04:11:40.002Z,101671.05
2018-12-05T04:14:08.074Z,101678.30
2018-12-05T04:16:37.300Z,101678.89
2018-12-05T04:19:05.519Z,101675.59
2018-12-05T04:21:33.692Z,101676.78
2018-12-05T04:24:01.866Z,101682.80
2018-12-05T04:26:29.963Z,101679.36
2018-12-05T04:28:58.190Z,101684.85
2018-12-05T04:31:26.273Z,101688.94
2018-12-05T04:33:54.346Z,101686.90
2018-12-05T04:36:22.503Z,101687.69
2018-12-05T04:39:08.330Z,101686.38
2018-12-05T04:41:36.508Z,101681.86
2018-12-05T04:44:05.360Z,101685.75
2018-12-05T04:46:33.614Z,101684.55
2018-12-05T04:49:01.776Z,101683.70
2018-12-05T04:51:29.874Z,101678.03
2018-12-05T04:53:58.091Z,101677.72
2018-12-05T04:56:26.228Z,101674.65
2018-12-05T04:58:54.430Z,101680.53
2018-12-05T05:01:22.574Z,101667.44
2018-12-05T05:03:50.758Z,101676.95
2018-12-05T05:06:19.071Z,101682.23
2018-12-05T05:08:47.886Z,101684.73
2018-12-05T05:11:16.037Z,101683.16
2018-12-05T05:13:44.303Z,101687.13
2018-12-05T05:16:12.655Z,101682.41
2018-12-05T05:18:40.756Z,101689.36
2018-12-05T05:21:08.918Z,101682.27
2018-12-05T05:23:37.098Z,101679.98
2018-12-05T05:26:05.276Z,101682.55
2018-12-05T05:28:33.445Z,101683.00
2018-12-05T05:31:01.543Z,101685.73
2018-12-05T05:33:29.651Z,101694.38
2018-12-05T05:35:57.819Z,101692.33
2018-12-05T05:38:26.011Z,101702.98
2018-12-05T05:41:00.867Z,101701.33
2018-12-05T05:43:28.966Z,101694.73
2018-12-05T05:45:57.150Z,101689.29
2018-12-05T05:48:25.238Z,101687.85
2018-12-05T05:50:53.342Z,101685.67
2018-12-05T05:53:21.620Z,101687.66
2018-12-05T05:55:49.810Z,101698.70
2018-12-05T05:58:18.082Z,101694.73
2018-12-05T06:00:46.292Z,101694.84
2018-12-05T06:03:14.488Z,101680.53
2018-12-05T06:05:42.714Z,101676.84
2018-12-05T06:08:10.918Z,101677.30
2018-12-05T06:10:39.119Z,101679.41
2018-12-05T06:13:07.397Z,101674.53
2018-12-05T06:15:35.679Z,101676.09
2018-12-05T06:18:03.862Z,101676.70
2018-12-05T06:20:32.074Z,101676.31
2018-12-05T06:23:00.250Z,101669.94
2018-12-05T06:25:28.491Z,101672.81
2018-12-05T06:27:56.676Z,101662.25
2018-12-05T06:30:24.906Z,101659.02
2018-12-05T06:32:53.089Z,101664.06
2018-12-05T06:35:21.366Z,101660.27
2018-12-05T06:37:49.633Z,101666.74
2018-12-05T06:40:17.894Z,101672.88
2018-12-05T06:42:46.145Z,101676.70
2018-12-05T06:45:14.486Z,101668.80
2018-12-05T06:47:42.665Z,101668.20
2018-12-05T06:50:10.934Z,101663.31
2018-12-05T06:52:39.140Z,101665.36
2018-12-05T06:55:07.476Z,101664.44
2018-12-05T06:57:35.557Z,101671.98
2018-12-05T07:00:03.858Z,101673.56
2018-12-05T07:02:31.999Z,101677.66
2018-12-05T07:05:00.117Z,101679.58
2018-12-05T07:07:28.959Z,101670.38
2018-12-05T07:09:57.157Z,101671.23
2018-12-05T07:12:25.224Z,101670.98
2018-12-05T07:14:53.315Z,101670.00
2018-12-05T07:17:21.381Z,101668.98
2018-12-05T07:19:49.453Z,101667.53
2018-12-05T07:22:17.525Z,101665.02
2018-12-05T07:24:45.605Z,101665.62
2018-12-05T07:27:13.789Z,101663.48
2018-12-05T07:29:41.891Z,101667.58
2018-12-05T07:32:10.038Z,101671.88
2018-12-05T07:34:38.137Z,101670.47
2018-12-05T07:37:06.415Z,101679.22
2018-12-05T07:39:34.505Z,101685.23
2018-12-05T07:42:02.587Z,101687.31
2018-12-05T07:44:30.694Z,101694.98
2018-12-05T07:46:58.845Z,101700.19
2018-12-05T07:49:26.965Z,101686.23
2018-12-05T07:51:55.477Z,101690.92
2018-12-05T07:54:23.569Z,101685.52
2018-12-05T07:56:51.751Z,101683.84
2018-12-05T07:59:19.906Z,101681.82
2018-12-05T08:01:48.074Z,101686.85
2018-12-05T08:04:17.338Z,101683.73
2018-12-05T08:06:45.446Z,101685.78
2018-12-05T08:09:13.569Z,101684.31
2018-12-05T08:11:41.752Z,101686.02
2018-12-05T08:14:10.065Z,101688.19
2018-12-05T08:16:38.234Z,101692.52
2018-12-05T08:19:06.286Z,101689.39
2018-12-05T08:21:34.390Z,101697.31
2018-12-05T08:24:02.441Z,101703.59
2018-12-05T08:26:30.597Z,101693.25
2018-12-05T08:28:58.691Z,101692.88
2018-12-05T08:31:26.814Z,101703.33
2018-12-05T08:33:54.953Z,101698.17
2018-12-05T08:36:23.026Z,101697.81
2018-12-05T08:38:51.194Z,101686.87
2018-12-05T08:41:19.270Z,101687.70
2018-12-05T08:43:47.337Z,101694.20
2018-12-05T08:46:15.410Z,101692.85
2018-12-05T08:48:43.473Z,101698.73
2018-12-05T08:51:11.695Z,101694.65
2018-12-05T08:53:39.819Z,101697.06
2018-12-05T08:56:07.962Z,101699.47
2018-12-05T08:58:36.040Z,101697.87
2018-12-05T09:01:04.102Z,101688.74
2018-12-05T09:03:32.187Z,101691.10
2018-12-05T09:06:00.359Z,101679.08
2018-12-05T09:08:28.450Z,101675.67
2018-12-05T09:10:56.614Z,101676.55
2018-12-05T09:13:24.916Z,101673.53
2018-12-05T09:15:53.195Z,101669.66
2018-12-05T09:18:21.379Z,101663.16
2018-12-05T09:20:49.559Z,101659.53
2018-12-05T09:23:17.828Z,101663.14
2018-12-05T09:25:52.705Z,101664.56
2018-12-05T09:28:20.857Z,101656.48
2018-12-05T09:30:49.011Z,101660.91
2018-12-05T09:33:17.190Z,101661.58
2018-12-05T09:35:45.503Z,101662.02
2018-12-05T09:38:13.681Z,101666.64
2018-12-05T09:40:41.858Z,101670.78
2018-12-05T09:43:10.065Z,101670.41
2018-12-05T09:45:38.246Z,101669.51
2018-12-05T09:48:06.445Z,101671.17
2018-12-05T09:50:34.551Z,101668.95
2018-12-05T09:53:02.709Z,101670.50
2018-12-05T09:55:31.103Z,101657.67
2018-12-05T09:57:59.310Z,101659.05
2018-12-05T10:00:27.462Z,101657.44
2018-12-05T10:02:55.541Z,101651.61
2018-12-05T10:05:23.699Z,101648.09
2018-12-05T10:07:51.806Z,101642.92
2018-12-05T10:10:19.959Z,101645.50
2018-12-05T10:12:48.043Z,101635.88
2018-12-05T10:15:16.142Z,101633.18
2018-12-05T10:17:44.297Z,101621.52
2018-12-05T10:20:12.465Z,101625.22
2018-12-05T10:22:40.613Z,101624.69
2018-12-05T10:25:08.843Z,101630.75
2018-12-05T10:27:43.189Z,101618.45
2018-12-05T10:30:11.429Z,101614.80
2018-12-05T10:32:39.586Z,101609.07
2018-12-05T10:35:07.995Z,101602.52
2018-12-05T10:37:36.178Z,101608.76
2018-12-05T10:40:05.066Z,101598.43
2018-12-05T10:42:33.389Z,101594.16
2018-12-05T10:45:01.576Z,101592.52
2018-12-05T10:47:29.989Z,101586.30
2018-12-05T10:49:58.252Z,101575.73
2018-12-05T10:52:26.514Z,101576.98
2018-12-05T10:54:54.704Z,101570.06
2018-12-05T10:57:22.882Z,101566.59
2018-12-05T10:59:51.170Z,101568.11
2018-12-05T11:02:24.714Z,101570.98
2018-12-05T11:04:58.342Z,101565.67
2018-12-05T11:07:31.856Z,101556.78
2018-12-05T11:10:05.302Z,101556.05
2018-12-05T11:12:38.693Z,101548.72
2018-12-05T11:15:12.312Z,101544.91
2018-12-05T11:17:43.822Z,101549.89
2018-12-05T11:20:17.467Z,101563.80
2018-12-05T11:22:50.894Z,101564.39
2018-12-05T11:25:20.659Z,101558.02
2018-12-05T11:27:48.935Z,101561.37
2018-12-05T11:30:17.210Z,101561.33
2018-12-05T11:32:45.389Z,101552.10
2018-12-05T11:35:13.658Z,101548.11
2018-12-05T11:37:41.935Z,101538.27
2018-12-05T11:40:10.154Z,101535.88
2018-12-05T11:42:38.334Z,101529.66
2018-12-05T11:45:06.738Z,101526.38
2018-12-05T11:47:34.926Z,101517.20
2018-12-05T11:50:03.201Z,101510.08
2018-12-05T11:52:31.394Z,101510.09
2018-12-05T11:54:59.602Z,101505.83
2018-12-05T11:57:27.863Z,101503.56
2018-12-05T11:59:56.118Z,101505.26
2018-12-05T12:02:24.303Z,101498.73
2018-12-05T12:04:52.655Z,101500.42
2018-12-05T12:07:20.859Z,101499.68
2018-12-05T12:09:49.222Z,101495.89
2018-12-05T12:12:22.831Z,101495.17
2018-12-05T12:14:51.024Z,101485.97
2018-12-05T12:17:19.375Z,101493.16
2018-12-05T12:19:47.635Z,101496.51
2018-12-05T12:22:15.820Z,101490.22
2018-12-05T12:27:28.188Z,101480.59
2018-12-05T12:29:56.439Z,101478.47
2018-12-05T12:32:24.614Z,101475.86
2018-12-05T12:34:52.779Z,101465.59
2018-12-05T12:37:20.978Z,101463.78
2018-12-05T12:39:49.159Z,101459.34
2018-12-05T12:42:17.431Z,101456.29
2018-12-05T12:44:45.670Z,101446.84
2018-12-05T12:47:14.049Z,101430.80
2018-12-05T12:49:42.226Z,101433.03
2018-12-05T12:52:10.433Z,101429.17
2018-12-05T12:54:38.627Z,101428.39
2018-12-05T12:57:06.981Z,101428.25
2018-12-05T12:59:35.166Z,101424.36
2018-12-05T13:02:03.346Z,101417.33
2018-12-05T13:04:31.543Z,101407.45
2018-12-05T13:06:59.735Z,101407.73
2018-12-05T13:09:27.935Z,101403.35
2018-12-05T13:11:56.211Z,101416.18
2018-12-05T13:14:24.401Z,101409.31
2018-12-05T13:16:52.580Z,101413.63
2018-12-05T13:19:20.885Z,101401.23
2018-12-05T13:21:49.167Z,101399.74
2018-12-05T13:24:17.363Z,101400.48
2018-12-05T13:26:45.638Z,101394.83
2018-12-05T13:29:14.023Z,101391.22
2018-12-05T13:31:42.210Z,101378.45
2018-12-05T13:34:10.415Z,101374.09
2018-12-05T13:36:38.590Z,101379.80
2018-12-05T13:39:08.453Z,101371.39
2018-12-05T13:41:36.646Z,101375.33
2018-12-05T13:44:04.963Z,101378.85
2018-12-05T13:46:33.249Z,101384.96
2018-12-05T13:49:01.530Z,101381.02
2018-12-05T13:51:29.795Z,101380.14
2018-12-05T13:53:57.990Z,101381.11
2018-12-05T13:56:26.200Z,101379.69
2018-12-05T13:58:54.531Z,101370.09
2018-12-05T14:01:22.694Z,101370.48
2018-12-05T14:03:50.895Z,101361.50
2018-12-05T14:06:19.147Z,101365.44
2018-12-05T14:08:47.364Z,101358.86
2018-12-05T14:11:15.660Z,101350.61
2018-12-05T14:13:43.942Z,101350.45
2018-12-05T14:16:12.215Z,101344.44
2018-12-05T14:18:40.410Z,101338.73
2018-12-05T14:21:08.707Z,101333.46
2018-12-05T14:23:36.900Z,101330.91
2018-12-05T14:26:05.245Z,101334.44
2018-12-05T14:28:33.438Z,101328.73
2018-12-05T14:31:01.658Z,101322.78
2018-12-05T14:33:29.834Z,101318.59
2018-12-05T14:35:58.186Z,101317.26
2018-12-05T14:38:26.379Z,101313.32
2018-12-05T14:40:54.669Z,101308.20
2018-12-05T14:43:22.867Z,101309.16
2018-12-05T14:45:51.040Z,101293.35
2018-12-05T14:48:19.238Z,101295.61
2018-12-05T14:50:47.432Z,101292.16
2018-12-05T14:53:15.814Z,101288.70
2018-12-05T14:55:44.037Z,101292.16
2018-12-05T14:58:12.291Z,101286.91
2018-12-05T15:00:40.486Z,101290.84
2018-12-05T15:03:08.692Z,101291.22
2018-12-05T15:05:36.959Z,101294.57
2018-12-05T15:08:05.227Z,101285.78
2018-12-05T15:10:33.441Z,101287.69
2018-12-05T15:13:01.640Z,101279.95
2018-12-05T15:15:29.903Z,101283.16
2018-12-05T15:17:58.098Z,101281.06
2018-12-05T15:20:26.323Z,101286.55
2018-12-05T15:22:54.507Z,101277.73
2018-12-05T15:25:22.802Z,101278.53
2018-12-05T15:27:50.970Z,101274.42
2018-12-05T15:30:19.159Z,101275.39
2018-12-05T15:32:47.459Z,101273.85
2018-12-05T15:35:15.655Z,101275.39
2018-12-05T15:37:43.826Z,101272.09
2018-12-05T15:40:12.114Z,101271.20
2018-12-05T15:42:40.295Z,101264.66
2018-12-05T15:45:08.623Z,101259.94
2018-12-05T15:47:37.242Z,101262.28
2018-12-05T15:50:07.351Z,101257.02
2018-12-05T15:52:35.538Z,101249.56
2018-12-05T15:55:03.864Z,101256.73
2018-12-05T15:57:32.072Z,101253.44
2018-12-05T16:00:00.354Z,101251.75
2018-12-05T16:02:28.598Z,101252.98
2018-12-05T16:04:56.767Z,101249.79
2018-12-05T16:07:25.045Z,101246.44
2018-12-05T16:09:53.227Z,101240.20
2018-12-05T16:12:21.510Z,101232.89
2018-12-05T16:14:49.783Z,101238.96
2018-12-05T16:17:17.986Z,101232.73
2018-12-05T16:19:46.170Z,101241.39
2018-12-05T16:22:14.395Z,101233.80
2018-12-05T16:24:42.566Z,101228.63
2018-12-05T16:27:10.759Z,101226.46
2018-12-05T16:29:38.925Z,101222.20
2018-12-05T16:32:07.111Z,101214.62
2018-12-05T16:34:35.290Z,101220.93
2018-12-05T16:37:03.510Z,101215.52
2018-12-05T16:39:31.716Z,101211.28
2018-12-05T16:41:59.948Z,101199.02
2018-12-05T16:44:28.475Z,101206.45
2018-12-05T16:47:00.698Z,101199.92
2018-12-05T16:49:28.912Z,101190.92
2018-12-05T16:51:57.316Z,101187.81
2018-12-05T16:54:25.630Z,101187.81
2018-12-05T16:56:53.791Z,101190.63
2018-12-05T16:59:21.932Z,101193.76
2018-12-05T17:01:50.276Z,101190.98
2018-12-05T17:04:18.427Z,101183.55
2018-12-05T17:06:46.629Z,101178.02
2018-12-05T17:09:14.810Z,101176.55
2018-12-05T17:11:42.933Z,101171.34
2018-12-05T17:14:11.069Z,101163.48
2018-12-05T17:16:39.146Z,101162.03
2018-12-05T17:19:07.617Z,101161.99
2018-12-05T17:21:35.708Z,101150.41
2018-12-05T17:24:04.021Z,101146.38
2018-12-05T17:26:32.183Z,101140.11
2018-12-05T17:29:00.351Z,101139.81
2018-12-05T17:31:28.547Z,101134.45
2018-12-05T17:33:56.698Z,101122.80
2018-12-05T17:36:24.857Z,101124.56
2018-12-05T17:38:53.080Z,101120.50
2018-12-05T17:41:21.171Z,101123.80
2018-12-05T17:43:49.322Z,101122.80
2018-12-05T17:46:17.393Z,101119.41
2018-12-05T17:48:45.506Z,101124.33
2018-12-05T17:51:13.622Z,101119.57
2018-12-05T17:53:44.002Z,101119.55
2018-12-05T17:56:14.150Z,101124.10
2018-12-05T17:58:45.191Z,101123.83
2018-12-05T18:01:17.025Z,101125.48
2018-12-05T18:03:48.927Z,101123.59
2018-12-05T18:06:18.507Z,101122.31
2018-12-05T18:08:48.190Z,101123.55
2018-12-05T18:11:20.037Z,101119.94
2018-12-05T18:13:52.221Z,101109.88
2018-12-05T18:16:24.003Z,101108.59
2018-12-05T18:18:55.669Z,101112.70
2018-12-05T18:21:27.801Z,101113.02
2018-12-05T18:24:00.000Z,101108.63
2018-12-05T18:26:31.193Z,101093.05
2018-12-05T18:29:04.659Z,101093.98
2018-12-05T18:31:39.108Z,101080.27
2018-12-05T18:34:09.669Z,101075.30
2018-12-05T18:36:41.683Z,101065.69
2018-12-05T18:39:14.711Z,101050.52
2018-12-05T18:41:43.323Z,101051.84
2018-12-05T18:44:17.397Z,101041.55
2018-12-05T18:46:53.277Z,101039.09
2018-12-05T18:49:28.310Z,101034.74
2018-12-05T18:52:01.086Z,101044.69
2018-12-05T18:54:31.294Z,101048.92
2018-12-05T18:57:09.419Z,101038.69
2018-12-05T18:59:40.835Z,101040.38
2018-12-05T19:02:11.055Z,101045.77
2018-12-05T19:04:45.039Z,101062.16
2018-12-05T19:07:17.514Z,101058.38
2018-12-05T19:09:50.108Z,101028.62
2018-12-05T19:12:32.336Z,101016.19
2018-12-05T19:15:02.956Z,100983.11
2018-12-05T19:17:33.966Z,100987.74
2018-12-05T19:33:35.036Z,101026.86
2018-12-05T19:39:06.568Z,100995.44
2018-12-05T19:41:43.399Z,100995.12
2018-12-05T19:44:19.819Z,101004.09
2018-12-05T19:47:03.385Z,100999.50
2018-12-05T19:49:38.237Z,101001.34
2018-12-05T19:52:11.626Z,100992.41
2018-12-05T19:54:43.477Z,100994.22
2018-12-05T19:57:15.571Z,100985.09
2018-12-05T19:59:45.982Z,100970.13
2018-12-05T20:02:18.542Z,100978.12
2018-12-05T20:04:48.741Z,100971.22
2018-12-05T20:07:28.507Z,100970.05
2018-12-05T20:10:02.620Z,100962.47
2018-12-05T20:12:33.689Z,100951.98
2018-12-05T20:15:05.745Z,100950.19
2018-12-05T20:17:38.339Z,100951.68
2018-12-05T20:21:03.835Z,100947.94
2018-12-05T20:26:52.383Z,100955.09
2018-12-05T20:34:04.464Z,100941.59
2018-12-05T20:36:39.784Z,100941.45
2018-12-05T20:39:26.000Z,100946.41
2018-12-05T20:42:08.351Z,100944.66
2018-12-05T20:44:37.232Z,100936.95
2018-12-05T20:47:09.945Z,100934.52
2018-12-05T20:49:39.986Z,100934.52
2018-12-05T20:57:52.056Z,100922.84
2018-12-05T21:00:26.210Z,100918.17
2018-12-05T21:02:56.669Z,100921.07
2018-12-05T21:05:31.929Z,100922.42
2018-12-05T21:08:09.391Z,100915.19
2018-12-05T21:10:39.552Z,100916.70
2018-12-05T21:13:27.176Z,100922.02
2018-12-05T21:16:04.065Z,100929.85
2018-12-05T21:21:57.873Z,100915.78
2018-12-05T21:24:26.754Z,100912.47
2018-12-05T21:26:56.894Z,100915.75
2018-12-05T21:29:27.943Z,100915.13
2018-12-05T21:32:04.479Z,100913.00
2018-12-05T21:34:36.205Z,100902.53
2018-12-05T21:37:09.842Z,100883.21
2018-12-05T21:39:41.045Z,100877.71
2018-12-05T21:42:12.881Z,100898.83
2018-12-05T21:44:44.429Z,100896.17
2018-12-05T21:47:17.083Z,100897.03
2018-12-05T21:49:49.329Z,100902.64
2018-12-05T21:52:24.015Z,100896.27
2018-12-05T21:54:59.857Z,100892.16
2018-12-05T21:57:37.271Z,100894.63
2018-12-05T22:00:13.228Z,100890.18
2018-12-05T22:02:43.095Z,100894.37
2018-12-05T22:05:24.451Z,100890.55
2018-12-05T22:07:53.618Z,100885.58
2018-12-05T22:10:22.094Z,100880.27
2018-12-05T22:12:55.035Z,100887.89
2018-12-05T22:15:24.442Z,100889.06
2018-12-05T22:17:52.626Z,100878.27
2018-12-05T22:20:29.794Z,100875.45
2018-12-05T22:23:05.979Z,100874.33
2018-12-05T22:25:38.962Z,100875.83
2018-12-05T22:28:09.138Z,100872.81
2018-12-05T22:30:39.992Z,100872.27
2018-12-05T22:33:15.815Z,100864.13
2018-12-05T22:38:40.956Z,100859.33
2018-12-05T22:41:17.712Z,100858.80
2018-12-05T22:44:02.873Z,100858.50
2018-12-05T22:46:34.041Z,100856.00
2018-12-05T22:49:21.774Z,100853.02
2018-12-05T22:52:05.104Z,100846.86
2018-12-05T22:54:51.562Z,100846.20
2018-12-05T22:57:30.164Z,100846.73
2018-12-05T23:00:17.041Z,100846.48
2018-12-05T23:02:56.876Z,100834.06
2018-12-05T23:05:27.412Z,100830.57
2018-12-05T23:07:59.083Z,100819.48
2018-12-05T23:10:28.484Z,100821.82
2018-12-05T23:12:58.929Z,100815.70
2018-12-05T23:15:28.589Z,100818.70
2018-12-05T23:17:57.622Z,100809.67
2018-12-05T23:20:26.313Z,100811.83
2018-12-05T23:22:55.883Z,100812.67
2018-12-05T23:25:24.189Z,100809.53
2018-12-05T23:27:53.203Z,100808.20
2018-12-05T23:30:22.888Z,100814.99
2018-12-05T23:32:55.088Z,100816.48
2018-12-05T23:35:25.327Z,100815.36
2018-12-05T23:37:55.254Z,100826.14
2018-12-05T23:40:29.646Z,100818.98
2018-12-05T23:42:58.850Z,100819.65
2018-12-05T23:45:29.030Z,100812.41
2018-12-05T23:48:00.453Z,100809.87
2018-12-05T23:50:30.390Z,100813.21
2018-12-05T23:53:03.716Z,100802.55
2018-12-05T23:55:36.331Z,100801.70
2018-12-05T23:58:12.005Z,100799.61
